This is the latest recevied weather packets stored in our database for station/object N4CRH-13. If no packets are shown the sender has not sent any weather packets the latest 10 day(s).
| Time | Temp. | Humidity | Pressure | Rain* | Wind** | Luminosity | Snow |
|---|---|---|---|---|---|---|---|
| 1777506441 | 5.56° C | 86% | 1296.4 hPa | 0 mm | - | 85 W/m² | - |
| 1777506138 | 6.11° C | 84% | 1296.4 hPa | 0 mm | - | 58 W/m² | - |
| 1777505833 | 6.11° C | 81% | 1296.2 hPa | 0 mm | - | 47 W/m² | - |
| 1777505529 | 6.11° C | 81% | 1296.4 hPa | 0 mm | - | 58 W/m² | - |
| 1777505227 | 6.11° C | 80% | 1296.4 hPa | 0 mm | - | 76 W/m² | - |
| 1777504924 | 6.11° C | 82% | 1296.3 hPa | 0 mm | - | 177 W/m² | - |
| 1777504621 | 6.11° C | 81% | 1296.4 hPa | 0 mm | - | 95 W/m² | - |
| 1777504317 | 6.11° C | 84% | 1296.2 hPa | 0 mm | - | 80 W/m² | - |
| 1777504012 | 5.56° C | 85% | 1295.9 hPa | 0 mm | - | 141 W/m² | - |
| 1777503709 | 5.56° C | 84% | 1296.2 hPa | 0 mm | - | 72 W/m² | - |
| 1777503405 | 5.56° C | 84% | 1296 hPa | 0 mm | - | 27 W/m² | - |
| 1777503101 | 5.56° C | 87% | 1296.4 hPa | 0 mm | - | 25 W/m² | - |
| 1777502799 | 5.56° C | 87% | 1296.2 hPa | 0 mm | - | 32 W/m² | - |
| 1777502496 | 5.56° C | 86% | 1296 hPa | 0 mm | - | 47 W/m² | - |
| 1777502193 | 5.56° C | 86% | 1296.2 hPa | 0 mm | - | 61 W/m² | - |
| 1777501890 | 6.11° C | 84% | 1295.9 hPa | 0 mm | - | 55 W/m² | - |
| 1777501587 | 6.11° C | 85% | 1295.8 hPa | 0 mm | - | 111 W/m² | - |
| 1777501285 | 6.11° C | 85% | 1295.9 hPa | 0 mm | - | 242 W/m² | - |
| 1777500982 | 5.56° C | 89% | 1296 hPa | 0 mm | - | 210 W/m² | - |
| 1777500680 | 5.56° C | 88% | 1296 hPa | 0 mm | - | 149 W/m² | - |
| 1777500376 | 5.56° C | 87% | 1296.3 hPa | 0 mm | - | 124 W/m² | - |
| 1777500072 | 5.56° C | 89% | 1296.2 hPa | 0 mm | - | 155 W/m² | - |
| 1777499769 | 5° C | 89% | 1295.9 hPa | 0 mm | - | 193 W/m² | - |
| 1777499465 | 5.56° C | 86% | 1295.6 hPa | 0 mm | - | 219 W/m² | - |
| 1777499164 | 7.22° C | 75% | 1295.9 hPa | 0 mm | - | 125 W/m² | - |
* Rain latest hour (hover to see other rain measurements)
** Current wind speed in m/s (hover to see current wind gust speed)